Terminal Aerodrome Forecast
Issued by NWS

Home | Current Version | Previous Version | Text Only | Print | Product List | Glossary On
Versions: 1 2 3 4 5 6 7 8 9 10 11 12
709
FTUS43 KSGF 022320
TAFJLN
TAF
KJLN 022320Z 0300/0324 08007KT P6SM BKN050 OVC150
     FM031400 09006KT P6SM OVC100
     FM032000 12007KT P6SM BKN030 OVC050 PROB30 0320/0324 -RA SCT015
      OVC025=

USA.gov is the U.S. government's official web portal to all federal, state and local government web resources and services.